Portada
METAR-TAF:

METAR-TAF

Aeroports :

Johannesburg, Sud-àfrica

latitud: 26-08S, longitud: 028-14E, altitud: 1694 m

Observació

L'informe es va fer fa 46 minuts, a les 19:00 UTC
Vent 5 kt del Nord-Oest
Temperatura 9°C
Humitat 43%
Pressió 1035 hPa
Visibilitat 10 km o més
sense núvols per sota de 1500 mi sense presència de cumulonimbus.

METAR: FAOR 181900Z 32005KT CAVOK 09/M03 Q1035 NOSIG

Hora: 21:46 (19:46 UTC)

Pronòstic

L'informe es va fer fa 3 hores i 46 minuts, a les 16:00 UTC
Pronòstic vàlid del 18 a les 18 UTC al 19 a les 24 UTC
Vent 5 kt del Nord-Est
Visibilitat 10 km o més
sense núvols per sota de 1500 mi sense presència de cumulonimbus.
Evolucionant progressivament
l' 19 a les 10 UTC al 19 a les 12 UTC
Vent 3 kt amb direcció variable

TAF: FAOR 181600Z 1818/1924 04005KT CAVOK BECMG 1910/1912 VRB03KT TX15/1912Z TN02/1904Z

Observacions i pronòstics meteorològics de més de 4000 aeroports (METAR i TAF).

Les estacions disponibles són els punts grocs i vermells al mapa.

Posi el ratolí al punt desitjat per veure el nom de l'estació.

Feu clic per veure les observacions i els pronòstics meteorològics.

Per canviar el mapa: feu clic els botons verds amb una creu de color negre per apropar; al botó verd amb un guió per allunyar la imatge; o en les fletxes verdes per a mapes adjacents.


METAR-TAF: